sensor_id;sensor_type;location;lat;lon;timestamp;pressure;altitude;pressure_sealevel;temperature;humidity
6194;BME280;3130;41.564;23.280;2024-03-02T00:00:30;98230.84;;;11.58;nan
6194;BME280;3130;41.564;23.280;2024-03-02T00:02:58;98239.66;;;11.88;nan
6194;BME280;3130;41.564;23.280;2024-03-02T00:05:25;98245.59;;;11.89;nan
6194;BME280;3130;41.564;23.280;2024-03-02T00:07:55;98252.59;;;11.87;nan
6194;BME280;3130;41.564;23.280;2024-03-02T00:10:25;98224.91;;;11.79;nan
6194;BME280;3130;41.564;23.280;2024-03-02T00:12:55;98215.44;;;11.58;nan
6194;BME280;3130;41.564;23.280;2024-03-02T00:15:40;98248.75;;;12.03;nan
6194;BME280;3130;41.564;23.280;2024-03-02T00:18:11;98254.50;;;12.17;nan
6194;BME280;3130;41.564;23.280;2024-03-02T00:20:39;98248.25;;;12.31;nan
6194;BME280;3130;41.564;23.280;2024-03-02T00:23:09;98254.50;;;12.17;nan
6194;BME280;3130;41.564;23.280;2024-03-02T00:25:41;98208.22;;;11.74;nan
6194;BME280;3130;41.564;23.280;2024-03-02T00:28:18;98247.34;;;11.99;nan
6194;BME280;3130;41.564;23.280;2024-03-02T00:30:57;98244.78;;;12.10;nan
6194;BME280;3130;41.564;23.280;2024-03-02T00:33:27;98247.94;;;11.92;nan
6194;BME280;3130;41.564;23.280;2024-03-02T00:35:55;98184.38;;;11.50;nan
6194;BME280;3130;41.564;23.280;2024-03-02T00:38:24;98246.53;;;11.99;nan
6194;BME280;3130;41.564;23.280;2024-03-02T00:40:52;98245.03;;;12.07;nan
6194;BME280;3130;41.564;23.280;2024-03-02T00:43:40;98248.06;;;12.01;nan
6194;BME280;3130;41.564;23.280;2024-03-02T00:46:08;98242.56;;;11.95;nan
6194;BME280;3130;41.564;23.280;2024-03-02T00:48:36;98250.25;;;11.73;nan
6194;BME280;3130;41.564;23.280;2024-03-02T00:51:04;98234.91;;;11.49;nan
6194;BME280;3130;41.564;23.280;2024-03-02T00:53:33;98233.59;;;11.44;nan
6194;BME280;3130;41.564;23.280;2024-03-02T00:56:01;98217.50;;;11.42;nan
6194;BME280;3130;41.564;23.280;2024-03-02T00:58:28;98243.25;;;11.64;nan
6194;BME280;3130;41.564;23.280;2024-03-02T01:00:55;98239.06;;;11.96;nan
6194;BME280;3130;41.564;23.280;2024-03-02T01:03:23;98248.16;;;12.10;nan
6194;BME280;3130;41.564;23.280;2024-03-02T01:05:50;98239.28;;;12.03;nan
6194;BME280;3130;41.564;23.280;2024-03-02T01:08:17;98230.84;;;11.69;nan
6194;BME280;3130;41.564;23.280;2024-03-02T01:10:46;98234.13;;;11.71;nan
6194;BME280;3130;41.564;23.280;2024-03-02T01:13:13;98203.47;;;11.35;nan
6194;BME280;3130;41.564;23.280;2024-03-02T01:15:41;98236.63;;;11.38;nan
6194;BME280;3130;41.564;23.280;2024-03-02T01:18:08;98161.19;;;11.06;nan
6194;BME280;3130;41.564;23.280;2024-03-02T01:20:35;98165.28;;;11.08;nan
6194;BME280;3130;41.564;23.280;2024-03-02T01:23:03;98230.16;;;11.21;nan
6194;BME280;3130;41.564;23.280;2024-03-02T01:25:30;98232.97;;;11.18;nan
6194;BME280;3130;41.564;23.280;2024-03-02T01:27:59;98225.13;;;11.20;nan
6194;BME280;3130;41.564;23.280;2024-03-02T01:30:26;98226.19;;;11.17;nan
6194;BME280;3130;41.564;23.280;2024-03-02T01:32:53;98224.63;;;11.04;nan
6194;BME280;3130;41.564;23.280;2024-03-02T01:35:21;98074.31;;;10.22;nan
6194;BME280;3130;41.564;23.280;2024-03-02T01:37:48;98160.00;;;10.65;nan
6194;BME280;3130;41.564;23.280;2024-03-02T01:40:15;98232.28;;;11.27;nan
6194;BME280;3130;41.564;23.280;2024-03-02T01:42:43;98237.16;;;11.19;nan
6194;BME280;3130;41.564;23.280;2024-03-02T01:45:12;98229.91;;;11.13;nan
6194;BME280;3130;41.564;23.280;2024-03-02T01:47:39;98223.84;;;11.14;nan
6194;BME280;3130;41.564;23.280;2024-03-02T01:50:07;98232.63;;;11.23;nan
6194;BME280;3130;41.564;23.280;2024-03-02T01:52:37;98218.22;;;11.09;nan
6194;BME280;3130;41.564;23.280;2024-03-02T01:55:05;98231.03;;;11.09;nan
6194;BME280;3130;41.564;23.280;2024-03-02T01:57:33;98238.88;;;11.08;nan
6194;BME280;3130;41.564;23.280;2024-03-02T02:00:01;98223.59;;;11.06;nan
6194;BME280;3130;41.564;23.280;2024-03-02T02:02:30;98239.91;;;11.05;nan
6194;BME280;3130;41.564;23.280;2024-03-02T02:04:57;98233.72;;;10.97;nan
6194;BME280;3130;41.564;23.280;2024-03-02T02:07:25;98228.81;;;11.05;nan
6194;BME280;3130;41.564;23.280;2024-03-02T02:09:52;98230.34;;;11.07;nan
6194;BME280;3130;41.564;23.280;2024-03-02T02:12:19;98233.84;;;11.06;nan
6194;BME280;3130;41.564;23.280;2024-03-02T02:14:47;98217.69;;;10.94;nan
6194;BME280;3130;41.564;23.280;2024-03-02T02:17:15;98234.38;;;10.99;nan
6194;BME280;3130;41.564;23.280;2024-03-02T02:19:44;98232.63;;;10.89;nan
6194;BME280;3130;41.564;23.280;2024-03-02T02:22:13;98211.44;;;10.74;nan
6194;BME280;3130;41.564;23.280;2024-03-02T02:24:40;98178.88;;;10.64;nan
6194;BME280;3130;41.564;23.280;2024-03-02T02:27:08;98232.75;;;10.98;nan
6194;BME280;3130;41.564;23.280;2024-03-02T02:29:36;98166.19;;;10.62;nan
6194;BME280;3130;41.564;23.280;2024-03-02T02:32:03;98206.19;;;10.76;nan
6194;BME280;3130;41.564;23.280;2024-03-02T02:34:31;98229.97;;;11.01;nan
6194;BME280;3130;41.564;23.280;2024-03-02T02:36:59;98223.25;;;11.11;nan
6194;BME280;3130;41.564;23.280;2024-03-02T02:39:28;98218.78;;;11.02;nan
6194;BME280;3130;41.564;23.280;2024-03-02T02:41:55;98202.13;;;11.07;nan
6194;BME280;3130;41.564;23.280;2024-03-02T02:44:22;98218.78;;;11.02;nan
6194;BME280;3130;41.564;23.280;2024-03-02T02:46:49;98179.28;;;10.81;nan
6194;BME280;3130;41.564;23.280;2024-03-02T02:49:17;98221.41;;;11.24;nan
6194;BME280;3130;41.564;23.280;2024-03-02T02:51:44;98228.81;;;11.50;nan
6194;BME280;3130;41.564;23.280;2024-03-02T02:54:11;98226.91;;;11.65;nan
6194;BME280;3130;41.564;23.280;2024-03-02T02:56:40;98226.44;;;11.71;nan
6194;BME280;3130;41.564;23.280;2024-03-02T02:59:07;98222.25;;;11.81;nan
6194;BME280;3130;41.564;23.280;2024-03-02T03:01:34;98228.78;;;11.96;nan
6194;BME280;3130;41.564;23.280;2024-03-02T03:04:01;98232.19;;;12.07;nan
6194;BME280;3130;41.564;23.280;2024-03-02T03:06:29;98159.78;;;11.69;nan
6194;BME280;3130;41.564;23.280;2024-03-02T03:08:56;98224.09;;;12.11;nan
6194;BME280;3130;41.564;23.280;2024-03-02T03:11:23;98082.94;;;11.01;nan
6194;BME280;3130;41.564;23.280;2024-03-02T03:13:53;98152.84;;;11.15;nan
6194;BME280;3130;41.564;23.280;2024-03-02T03:16:21;98221.88;;;11.63;nan
6194;BME280;3130;41.564;23.280;2024-03-02T03:18:48;98230.34;;;11.53;nan
6194;BME280;3130;41.564;23.280;2024-03-02T03:21:17;98200.63;;;11.16;nan
6194;BME280;3130;41.564;23.280;2024-03-02T03:23:44;98191.25;;;11.04;nan
6194;BME280;3130;41.564;23.280;2024-03-02T03:26:12;98218.31;;;11.42;nan
6194;BME280;3130;41.564;23.280;2024-03-02T03:28:39;98186.88;;;11.17;nan
6194;BME280;3130;41.564;23.280;2024-03-02T03:31:07;98222.63;;;11.31;nan
6194;BME280;3130;41.564;23.280;2024-03-02T03:33:36;98202.03;;;11.20;nan
6194;BME280;3130;41.564;23.280;2024-03-02T03:36:04;98202.88;;;11.31;nan
6194;BME280;3130;41.564;23.280;2024-03-02T03:38:31;98202.88;;;11.31;nan
6194;BME280;3130;41.564;23.280;2024-03-02T03:40:58;98142.25;;;10.85;nan
6194;BME280;3130;41.564;23.280;2024-03-02T03:43:25;98223.91;;;11.47;nan
6194;BME280;3130;41.564;23.280;2024-03-02T03:45:53;98099.63;;;10.61;nan
6194;BME280;3130;41.564;23.280;2024-03-02T03:48:22;98118.81;;;10.44;nan
6194;BME280;3130;41.564;23.280;2024-03-02T03:50:49;98212.72;;;11.03;nan
6194;BME280;3130;41.564;23.280;2024-03-02T03:53:16;98194.16;;;10.89;nan
6194;BME280;3130;41.564;23.280;2024-03-02T03:55:43;98143.53;;;10.56;nan
6194;BME280;3130;41.564;23.280;2024-03-02T03:58:12;98176.47;;;10.73;nan
6194;BME280;3130;41.564;23.280;2024-03-02T04:00:40;98190.88;;;10.87;nan
6194;BME280;3130;41.564;23.280;2024-03-02T04:03:07;98183.34;;;10.73;nan
6194;BME280;3130;41.564;23.280;2024-03-02T04:05:36;98214.28;;;11.16;nan
6194;BME280;3130;41.564;23.280;2024-03-02T04:08:04;98195.03;;;11.11;nan
6194;BME280;3130;41.564;23.280;2024-03-02T04:10:32;98214.72;;;11.45;nan
6194;BME280;3130;41.564;23.280;2024-03-02T04:12:59;98111.66;;;10.71;nan
6194;BME280;3130;41.564;23.280;2024-03-02T04:15:27;98180.63;;;11.32;nan
6194;BME280;3130;41.564;23.280;2024-03-02T04:17:54;98228.78;;;11.63;nan
6194;BME280;3130;41.564;23.280;2024-03-02T04:20:22;98212.38;;;11.07;nan
6194;BME280;3130;41.564;23.280;2024-03-02T04:22:51;98228.47;;;11.09;nan
6194;BME280;3130;41.564;23.280;2024-03-02T04:25:18;98224.53;;;10.82;nan
6194;BME280;3130;41.564;23.280;2024-03-02T04:27:45;98239.97;;;10.93;nan
6194;BME280;3130;41.564;23.280;2024-03-02T04:30:13;98231.91;;;10.87;nan
6194;BME280;3130;41.564;23.280;2024-03-02T04:32:40;98227.09;;;10.82;nan
6194;BME280;3130;41.564;23.280;2024-03-02T04:35:12;98157.84;;;10.24;nan
6194;BME280;3130;41.564;23.280;2024-03-02T04:37:39;98223.09;;;10.55;nan
6194;BME280;3130;41.564;23.280;2024-03-02T04:40:09;98155.19;;;10.13;nan
6194;BME280;3130;41.564;23.280;2024-03-02T04:42:37;98235.63;;;10.59;nan
6194;BME280;3130;41.564;23.280;2024-03-02T04:45:04;98238.31;;;10.45;nan
6194;BME280;3130;41.564;23.280;2024-03-02T04:47:32;98141.41;;;10.03;nan
6194;BME280;3130;41.564;23.280;2024-03-02T04:49:59;98233.47;;;10.77;nan
6194;BME280;3130;41.564;23.280;2024-03-02T04:52:26;98240.50;;;11.09;nan
6194;BME280;3130;41.564;23.280;2024-03-02T04:54:54;98230.13;;;11.10;nan
6194;BME280;3130;41.564;23.280;2024-03-02T04:57:50;98109.78;;;10.39;nan
6194;BME280;3130;41.564;23.280;2024-03-02T05:00:20;98252.00;;;11.27;nan
6194;BME280;3130;41.564;23.280;2024-03-02T05:02:47;98250.66;;;11.45;nan
6194;BME280;3130;41.564;23.280;2024-03-02T05:05:15;98248.03;;;11.34;nan
6194;BME280;3130;41.564;23.280;2024-03-02T05:07:42;98243.03;;;11.43;nan
6194;BME280;3130;41.564;23.280;2024-03-02T05:10:10;98163.50;;;10.98;nan
6194;BME280;3130;41.564;23.280;2024-03-02T05:12:38;98226.47;;;11.36;nan
6194;BME280;3130;41.564;23.280;2024-03-02T05:15:23;98171.06;;;10.89;nan
6194;BME280;3130;41.564;23.280;2024-03-02T05:17:51;98234.78;;;11.05;nan
6194;BME280;3130;41.564;23.280;2024-03-02T05:20:19;98264.47;;;11.20;nan
6194;BME280;3130;41.564;23.280;2024-03-02T05:22:46;98242.47;;;11.05;nan
6194;BME280;3130;41.564;23.280;2024-03-02T05:25:15;98261.75;;;11.11;nan
6194;BME280;3130;41.564;23.280;2024-03-02T05:27:42;98261.69;;;11.00;nan
6194;BME280;3130;41.564;23.280;2024-03-02T05:30:10;98265.50;;;10.95;nan
6194;BME280;3130;41.564;23.280;2024-03-02T05:32:39;98166.25;;;10.26;nan
6194;BME280;3130;41.564;23.280;2024-03-02T05:35:07;98275.38;;;10.88;nan
6194;BME280;3130;41.564;23.280;2024-03-02T05:37:36;98278.53;;;10.92;nan
6194;BME280;3130;41.564;23.280;2024-03-02T05:40:06;98286.84;;;10.95;nan
6194;BME280;3130;41.564;23.280;2024-03-02T05:42:33;98284.47;;;11.04;nan
6194;BME280;3130;41.564;23.280;2024-03-02T05:45:01;98223.00;;;10.56;nan
6194;BME280;3130;41.564;23.280;2024-03-02T05:47:28;98273.50;;;10.79;nan
6194;BME280;3130;41.564;23.280;2024-03-02T05:49:57;98220.91;;;10.38;nan
6194;BME280;3130;41.564;23.280;2024-03-02T05:52:24;98229.22;;;10.65;nan
6194;BME280;3130;41.564;23.280;2024-03-02T05:54:51;98248.59;;;10.69;nan
6194;BME280;3130;41.564;23.280;2024-03-02T05:57:19;98260.16;;;10.74;nan
6194;BME280;3130;41.564;23.280;2024-03-02T05:59:59;98270.25;;;10.88;nan
6194;BME280;3130;41.564;23.280;2024-03-02T06:02:26;98289.75;;;11.14;nan
6194;BME280;3130;41.564;23.280;2024-03-02T06:04:58;98283.78;;;11.13;nan
6194;BME280;3130;41.564;23.280;2024-03-02T06:07:25;98299.69;;;11.18;nan
6194;BME280;3130;41.564;23.280;2024-03-02T06:09:53;98148.41;;;10.25;nan
6194;BME280;3130;41.564;23.280;2024-03-02T06:12:20;98280.13;;;11.05;nan
6194;BME280;3130;41.564;23.280;2024-03-02T06:14:47;98293.25;;;11.13;nan
6194;BME280;3130;41.564;23.280;2024-03-02T06:17:14;98302.19;;;11.31;nan
6194;BME280;3130;41.564;23.280;2024-03-02T06:19:42;98275.53;;;11.21;nan
6194;BME280;3130;41.564;23.280;2024-03-02T06:22:10;98284.16;;;11.20;nan
6194;BME280;3130;41.564;23.280;2024-03-02T06:24:38;98287.94;;;11.27;nan
6194;BME280;3130;41.564;23.280;2024-03-02T06:27:05;98303.25;;;11.39;nan
6194;BME280;3130;41.564;23.280;2024-03-02T06:29:33;98267.47;;;11.14;nan
6194;BME280;3130;41.564;23.280;2024-03-02T06:32:00;98237.75;;;10.89;nan
6194;BME280;3130;41.564;23.280;2024-03-02T06:34:27;98166.34;;;10.48;nan
6194;BME280;3130;41.564;23.280;2024-03-02T06:36:55;98246.69;;;11.06;nan
6194;BME280;3130;41.564;23.280;2024-03-02T06:39:23;98267.03;;;11.20;nan
6194;BME280;3130;41.564;23.280;2024-03-02T06:41:51;98312.81;;;11.72;nan
6194;BME280;3130;41.564;23.280;2024-03-02T06:44:18;98311.31;;;11.69;nan
6194;BME280;3130;41.564;23.280;2024-03-02T06:46:47;98228.06;;;11.26;nan
6194;BME280;3130;41.564;23.280;2024-03-02T06:49:14;98319.50;;;11.74;nan
6194;BME280;3130;41.564;23.280;2024-03-02T06:51:43;98268.13;;;11.40;nan
6194;BME280;3130;41.564;23.280;2024-03-02T06:54:11;98322.16;;;11.73;nan
6194;BME280;3130;41.564;23.280;2024-03-02T06:56:44;98327.88;;;11.65;nan
6194;BME280;3130;41.564;23.280;2024-03-02T06:59:11;98134.13;;;10.33;nan
6194;BME280;3130;41.564;23.280;2024-03-02T07:01:38;98327.16;;;11.63;nan
6194;BME280;3130;41.564;23.280;2024-03-02T07:04:06;98329.44;;;11.79;nan
6194;BME280;3130;41.564;23.280;2024-03-02T07:06:33;98190.13;;;11.08;nan
6194;BME280;3130;41.564;23.280;2024-03-02T07:09:00;98342.28;;;11.90;nan
6194;BME280;3130;41.564;23.280;2024-03-02T07:11:28;98277.84;;;11.82;nan
6194;BME280;3130;41.564;23.280;2024-03-02T07:13:56;98341.06;;;12.28;nan
6194;BME280;3130;41.564;23.280;2024-03-02T07:16:24;98206.13;;;11.57;nan
6194;BME280;3130;41.564;23.280;2024-03-02T07:18:57;98331.34;;;12.64;nan
6194;BME280;3130;41.564;23.280;2024-03-02T07:21:24;98336.38;;;12.77;nan
6194;BME280;3130;41.564;23.280;2024-03-02T07:23:52;98275.25;;;12.03;nan
6194;BME280;3130;41.564;23.280;2024-03-02T07:26:19;98335.78;;;12.29;nan
6194;BME280;3130;41.564;23.280;2024-03-02T07:28:46;98343.25;;;12.21;nan
6194;BME280;3130;41.564;23.280;2024-03-02T07:31:16;98347.81;;;12.07;nan
6194;BME280;3130;41.564;23.280;2024-03-02T07:33:44;98262.03;;;11.64;nan
6194;BME280;3130;41.564;23.280;2024-03-02T07:36:12;98353.88;;;12.06;nan
6194;BME280;3130;41.564;23.280;2024-03-02T07:38:40;98336.06;;;11.81;nan
6194;BME280;3130;41.564;23.280;2024-03-02T07:41:07;98354.69;;;11.96;nan
6194;BME280;3130;41.564;23.280;2024-03-02T07:43:34;98355.34;;;11.87;nan
6194;BME280;3130;41.564;23.280;2024-03-02T07:46:02;98333.34;;;11.61;nan
6194;BME280;3130;41.564;23.280;2024-03-02T07:48:31;98353.84;;;11.95;nan
6194;BME280;3130;41.564;23.280;2024-03-02T07:50:58;98349.91;;;11.91;nan
6194;BME280;3130;41.564;23.280;2024-03-02T07:53:27;98357.13;;;11.97;nan
6194;BME280;3130;41.564;23.280;2024-03-02T07:55:55;98358.81;;;12.09;nan
6194;BME280;3130;41.564;23.280;2024-03-02T07:58:27;98373.53;;;12.18;nan
6194;BME280;3130;41.564;23.280;2024-03-02T08:00:55;98300.38;;;12.00;nan
6194;BME280;3130;41.564;23.280;2024-03-02T08:03:22;98342.81;;;12.38;nan
6194;BME280;3130;41.564;23.280;2024-03-02T08:05:51;98350.88;;;12.34;nan
6194;BME280;3130;41.564;23.280;2024-03-02T08:08:18;98371.59;;;12.54;nan
6194;BME280;3130;41.564;23.280;2024-03-02T08:10:45;98347.50;;;12.33;nan
6194;BME280;3130;41.564;23.280;2024-03-02T08:13:13;98370.97;;;12.51;nan
6194;BME280;3130;41.564;23.280;2024-03-02T08:15:40;98374.84;;;12.45;nan
6194;BME280;3130;41.564;23.280;2024-03-02T08:18:08;98376.00;;;12.63;nan
6194;BME280;3130;41.564;23.280;2024-03-02T08:20:35;98376.47;;;12.35;nan
6194;BME280;3130;41.564;23.280;2024-03-02T08:23:04;98360.25;;;12.46;nan
6194;BME280;3130;41.564;23.280;2024-03-02T08:25:32;98315.94;;;12.20;nan
6194;BME280;3130;41.564;23.280;2024-03-02T08:27:59;98380.81;;;12.46;nan
6194;BME280;3130;41.564;23.280;2024-03-02T08:30:27;98380.56;;;12.71;nan
6194;BME280;3130;41.564;23.280;2024-03-02T08:32:55;98381.50;;;13.13;nan
6194;BME280;3130;41.564;23.280;2024-03-02T08:35:22;98380.94;;;13.41;nan
6194;BME280;3130;41.564;23.280;2024-03-02T08:37:49;98312.56;;;13.37;nan
6194;BME280;3130;41.564;23.280;2024-03-02T08:40:17;98357.28;;;13.88;nan
6194;BME280;3130;41.564;23.280;2024-03-02T08:42:44;98389.91;;;13.99;nan
6194;BME280;3130;41.564;23.280;2024-03-02T08:45:12;98370.28;;;14.18;nan
6194;BME280;3130;41.564;23.280;2024-03-02T08:47:40;98314.22;;;14.00;nan
6194;BME280;3130;41.564;23.280;2024-03-02T08:50:08;98393.13;;;14.52;nan
6194;BME280;3130;41.564;23.280;2024-03-02T08:52:35;98393.75;;;14.65;nan
6194;BME280;3130;41.564;23.280;2024-03-02T08:55:03;98375.41;;;14.68;nan
6194;BME280;3130;41.564;23.280;2024-03-02T08:57:32;98338.88;;;14.63;nan
6194;BME280;3130;41.564;23.280;2024-03-02T09:00:00;98385.81;;;14.97;nan
6194;BME280;3130;41.564;23.280;2024-03-02T09:02:28;98388.03;;;15.01;nan
6194;BME280;3130;41.564;23.280;2024-03-02T09:04:56;98396.84;;;14.99;nan
6194;BME280;3130;41.564;23.280;2024-03-02T09:07:23;98395.00;;;15.19;nan
6194;BME280;3130;41.564;23.280;2024-03-02T09:09:50;98401.84;;;15.30;nan
6194;BME280;3130;41.564;23.280;2024-03-02T09:12:18;98339.22;;;14.98;nan
6194;BME280;3130;41.564;23.280;2024-03-02T09:14:46;98402.66;;;15.40;nan
6194;BME280;3130;41.564;23.280;2024-03-02T09:17:14;98402.13;;;15.36;nan
6194;BME280;3130;41.564;23.280;2024-03-02T09:19:41;98402.69;;;15.49;nan
6194;BME280;3130;41.564;23.280;2024-03-02T09:22:09;98407.72;;;15.41;nan
6194;BME280;3130;41.564;23.280;2024-03-02T09:24:36;98364.00;;;15.19;nan
6194;BME280;3130;41.564;23.280;2024-03-02T09:27:04;98387.84;;;15.32;nan
6194;BME280;3130;41.564;23.280;2024-03-02T09:29:31;98399.91;;;15.22;nan
6194;BME280;3130;41.564;23.280;2024-03-02T09:32:00;98405.53;;;15.27;nan
6194;BME280;3130;41.564;23.280;2024-03-02T09:34:27;98407.16;;;15.47;nan
6194;BME280;3130;41.564;23.280;2024-03-02T09:36:55;98339.09;;;15.09;nan
6194;BME280;3130;41.564;23.280;2024-03-02T09:39:22;98408.03;;;15.09;nan
6194;BME280;3130;41.564;23.280;2024-03-02T09:41:51;98401.88;;;15.39;nan
6194;BME280;3130;41.564;23.280;2024-03-02T09:44:18;98374.41;;;15.48;nan
6194;BME280;3130;41.564;23.280;2024-03-02T09:46:49;98322.31;;;15.33;nan
6194;BME280;3130;41.564;23.280;2024-03-02T09:49:17;98376.13;;;16.04;nan
6194;BME280;3130;41.564;23.280;2024-03-02T09:51:47;98391.31;;;16.54;nan
6194;BME280;3130;41.564;23.280;2024-03-02T09:54:15;98386.66;;;16.58;nan
6194;BME280;3130;41.564;23.280;2024-03-02T09:56:43;98382.03;;;16.88;nan
6194;BME280;3130;41.564;23.280;2024-03-02T09:59:11;98371.81;;;17.14;nan
6194;BME280;3130;41.564;23.280;2024-03-02T10:01:55;98392.34;;;17.51;nan
6194;BME280;3130;41.564;23.280;2024-03-02T10:04:26;98395.06;;;17.50;nan
6194;BME280;3130;41.564;23.280;2024-03-02T10:07:09;98392.47;;;17.67;nan
6194;BME280;3130;41.564;23.280;2024-03-02T10:09:38;98325.50;;;17.28;nan
6194;BME280;3130;41.564;23.280;2024-03-02T10:12:06;98396.00;;;17.84;nan
6194;BME280;3130;41.564;23.280;2024-03-02T10:14:34;98375.44;;;17.47;nan
6194;BME280;3130;41.564;23.280;2024-03-02T10:17:02;98393.59;;;17.30;nan
6194;BME280;3130;41.564;23.280;2024-03-02T10:19:32;98389.72;;;17.24;nan
6194;BME280;3130;41.564;23.280;2024-03-02T10:22:01;98385.13;;;17.45;nan
6194;BME280;3130;41.564;23.280;2024-03-02T10:24:35;98382.25;;;17.66;nan
6194;BME280;3130;41.564;23.280;2024-03-02T10:27:07;98341.22;;;17.44;nan
6194;BME280;3130;41.564;23.280;2024-03-02T10:29:39;98377.59;;;17.69;nan
6194;BME280;3130;41.564;23.280;2024-03-02T10:32:09;98367.28;;;17.77;nan
6194;BME280;3130;41.564;23.280;2024-03-02T10:34:40;98378.66;;;18.02;nan
6194;BME280;3130;41.564;23.280;2024-03-02T10:37:08;98382.25;;;18.01;nan
6194;BME280;3130;41.564;23.280;2024-03-02T10:39:35;98305.31;;;17.92;nan
6194;BME280;3130;41.564;23.280;2024-03-02T10:42:05;98258.81;;;17.98;nan
6194;BME280;3130;41.564;23.280;2024-03-02T10:44:34;98365.94;;;19.00;nan
6194;BME280;3130;41.564;23.280;2024-03-02T10:47:02;98321.91;;;18.99;nan
6194;BME280;3130;41.564;23.280;2024-03-02T10:49:31;98299.34;;;18.99;nan
6194;BME280;3130;41.564;23.280;2024-03-02T10:52:00;98329.06;;;18.97;nan
6194;BME280;3130;41.564;23.280;2024-03-02T10:54:28;98295.28;;;18.97;nan
6194;BME280;3130;41.564;23.280;2024-03-02T10:57:03;98348.69;;;19.32;nan
6194;BME280;3130;41.564;23.280;2024-03-02T10:59:34;98305.84;;;18.54;nan
6194;BME280;3130;41.564;23.280;2024-03-02T11:02:03;98343.84;;;18.55;nan
6194;BME280;3130;41.564;23.280;2024-03-02T11:04:32;98296.19;;;17.88;nan
6194;BME280;3130;41.564;23.280;2024-03-02T11:07:06;98324.94;;;18.19;nan
6194;BME280;3130;41.564;23.280;2024-03-02T11:09:37;98250.41;;;17.79;nan
6194;BME280;3130;41.564;23.280;2024-03-02T11:12:11;98307.41;;;18.21;nan
6194;BME280;3130;41.564;23.280;2024-03-02T11:14:41;98282.72;;;18.10;nan
6194;BME280;3130;41.564;23.280;2024-03-02T11:17:10;98243.41;;;17.71;nan
6194;BME280;3130;41.564;23.280;2024-03-02T11:19:39;98288.09;;;17.65;nan
6194;BME280;3130;41.564;23.280;2024-03-02T11:22:10;98226.41;;;16.82;nan
6194;BME280;3130;41.564;23.280;2024-03-02T11:24:37;98300.00;;;17.23;nan
6194;BME280;3130;41.564;23.280;2024-03-02T11:27:06;98319.03;;;17.15;nan
6194;BME280;3130;41.564;23.280;2024-03-02T11:29:44;98269.38;;;17.02;nan
6194;BME280;3130;41.564;23.280;2024-03-02T11:32:20;98313.97;;;17.40;nan
6194;BME280;3130;41.564;23.280;2024-03-02T11:34:50;98315.06;;;17.55;nan
6194;BME280;3130;41.564;23.280;2024-03-02T11:37:27;98271.03;;;17.37;nan
6194;BME280;3130;41.564;23.280;2024-03-02T11:39:54;98253.84;;;17.36;nan
6194;BME280;3130;41.564;23.280;2024-03-02T11:42:21;98309.72;;;17.74;nan
6194;BME280;3130;41.564;23.280;2024-03-02T11:44:59;98213.75;;;17.14;nan
6194;BME280;3130;41.564;23.280;2024-03-02T11:47:33;98223.59;;;17.27;nan
6194;BME280;3130;41.564;23.280;2024-03-02T11:50:03;98275.81;;;17.75;nan
6194;BME280;3130;41.564;23.280;2024-03-02T11:52:34;98258.47;;;17.50;nan
6194;BME280;3130;41.564;23.280;2024-03-02T11:55:02;98305.22;;;17.84;nan
6194;BME280;3130;41.564;23.280;2024-03-02T11:57:30;98255.28;;;17.56;nan
6194;BME280;3130;41.564;23.280;2024-03-02T12:00:19;98296.28;;;17.35;nan
6194;BME280;3130;41.564;23.280;2024-03-02T12:03:00;98203.72;;;16.93;nan
6194;BME280;3130;41.564;23.280;2024-03-02T12:05:28;98143.53;;;16.03;nan
6194;BME280;3130;41.564;23.280;2024-03-02T12:08:03;98148.75;;;15.93;nan
6194;BME280;3130;41.564;23.280;2024-03-02T12:10:31;98276.59;;;16.98;nan
6194;BME280;3130;41.564;23.280;2024-03-02T12:12:59;98146.72;;;16.41;nan
6194;BME280;3130;41.564;23.280;2024-03-02T12:15:31;98145.75;;;16.42;nan
6194;BME280;3130;41.564;23.280;2024-03-02T12:18:12;98130.63;;;16.47;nan
6194;BME280;3130;41.564;23.280;2024-03-02T12:20:49;98269.22;;;17.38;nan
6194;BME280;3130;41.564;23.280;2024-03-02T12:23:22;98267.38;;;17.48;nan
6194;BME280;3130;41.564;23.280;2024-03-02T12:25:50;98253.09;;;17.44;nan
6194;BME280;3130;41.564;23.280;2024-03-02T12:28:20;98189.03;;;17.19;nan
6194;BME280;3130;41.564;23.280;2024-03-02T12:30:57;98213.25;;;17.45;nan
6194;BME280;3130;41.564;23.280;2024-03-02T12:33:25;98205.91;;;17.66;nan
6194;BME280;3130;41.564;23.280;2024-03-02T12:36:16;98112.25;;;17.35;nan
6194;BME280;3130;41.564;23.280;2024-03-02T12:38:52;98247.91;;;18.53;nan
6194;BME280;3130;41.564;23.280;2024-03-02T12:41:21;98240.88;;;18.87;nan
6194;BME280;3130;41.564;23.280;2024-03-02T12:43:48;98243.03;;;19.16;nan
6194;BME280;3130;41.564;23.280;2024-03-02T12:46:15;98143.25;;;18.85;nan
6194;BME280;3130;41.564;23.280;2024-03-02T12:48:43;98160.00;;;19.14;nan
6194;BME280;3130;41.564;23.280;2024-03-02T12:51:21;98201.91;;;19.59;nan
6194;BME280;3130;41.564;23.280;2024-03-02T12:54:03;98188.00;;;19.90;nan
6194;BME280;3130;41.564;23.280;2024-03-02T12:56:36;98186.38;;;19.89;nan
6194;BME280;3130;41.564;23.280;2024-03-02T12:59:05;98122.59;;;19.55;nan
6194;BME280;3130;41.564;23.280;2024-03-02T13:01:32;98196.41;;;20.16;nan
6194;BME280;3130;41.564;23.280;2024-03-02T13:04:00;98201.16;;;19.97;nan
6194;BME280;3130;41.564;23.280;2024-03-02T13:06:29;98240.47;;;19.31;nan
6194;BME280;3130;41.564;23.280;2024-03-02T13:09:04;98236.38;;;18.22;nan
6194;BME280;3130;41.564;23.280;2024-03-02T13:11:38;98180.81;;;17.66;nan
6194;BME280;3130;41.564;23.280;2024-03-02T13:14:05;98229.44;;;18.64;nan
6194;BME280;3130;41.564;23.280;2024-03-02T13:16:38;98227.84;;;18.79;nan
6194;BME280;3130;41.564;23.280;2024-03-02T13:19:09;98203.53;;;18.88;nan
6194;BME280;3130;41.564;23.280;2024-03-02T13:21:38;98246.28;;;19.26;nan
6194;BME280;3130;41.564;23.280;2024-03-02T13:24:07;98096.53;;;18.12;nan
6194;BME280;3130;41.564;23.280;2024-03-02T13:26:35;98120.16;;;18.50;nan
6194;BME280;3130;41.564;23.280;2024-03-02T13:29:03;98232.97;;;19.44;nan
6194;BME280;3130;41.564;23.280;2024-03-02T13:31:44;98158.03;;;19.00;nan
6194;BME280;3130;41.564;23.280;2024-03-02T13:34:13;98079.44;;;18.98;nan
6194;BME280;3130;41.564;23.280;2024-03-02T13:36:46;98174.00;;;19.91;nan
6194;BME280;3130;41.564;23.280;2024-03-02T13:39:15;98199.41;;;20.35;nan
6194;BME280;3130;41.564;23.280;2024-03-02T13:41:45;98193.75;;;20.24;nan